createdAt,value
2018-07-09T00:00:22.346Z,0.00
2018-07-09T00:01:22.354Z,0.00
2018-07-09T00:02:22.380Z,0.00
2018-07-09T00:03:22.392Z,0.00
2018-07-09T00:04:22.408Z,0.00
2018-07-09T00:05:22.829Z,0.00
2018-07-09T00:06:22.484Z,0.00
2018-07-09T00:07:22.455Z,0.00
2018-07-09T00:08:22.475Z,0.00
2018-07-09T00:09:22.488Z,0.00
2018-07-09T00:10:22.504Z,0.00
2018-07-09T00:11:22.523Z,0.00
2018-07-09T00:12:22.535Z,0.00
2018-07-09T00:13:22.554Z,0.00
2018-07-09T00:14:22.568Z,0.00
2018-07-09T00:15:22.584Z,0.00
2018-07-09T00:16:22.600Z,0.00
2018-07-09T00:17:22.624Z,0.00
2018-07-09T00:18:22.638Z,0.00
2018-07-09T00:19:22.650Z,0.00
2018-07-09T00:20:22.666Z,0.00
2018-07-09T00:21:22.682Z,0.00
2018-07-09T00:22:22.799Z,0.00
2018-07-09T00:23:22.715Z,0.00
2018-07-09T00:24:23.263Z,0.00
2018-07-09T00:25:22.761Z,0.00
2018-07-09T00:26:22.784Z,0.00
2018-07-09T00:27:22.781Z,0.00
2018-07-09T00:28:22.801Z,0.00
2018-07-09T00:29:22.817Z,0.00
2018-07-09T00:30:22.829Z,0.00
2018-07-09T00:31:22.845Z,0.00
2018-07-09T00:32:22.953Z,0.00
2018-07-09T00:33:22.877Z,0.00
2018-07-09T00:34:22.896Z,0.00
2018-07-09T00:35:22.956Z,0.00
2018-07-09T00:36:22.926Z,0.00
2018-07-09T00:37:23.072Z,0.00
2018-07-09T00:38:23.000Z,0.00
2018-07-09T00:39:23.076Z,0.00
2018-07-09T00:40:22.993Z,0.00
2018-07-09T00:41:23.010Z,0.00
2018-07-09T00:42:23.025Z,0.00
2018-07-09T00:43:23.055Z,0.00
2018-07-09T00:44:23.066Z,0.00
2018-07-09T00:45:23.076Z,0.00
2018-07-09T00:46:23.092Z,0.00
2018-07-09T00:47:23.115Z,0.00
2018-07-09T00:48:23.130Z,0.00
2018-07-09T00:49:23.140Z,0.00
2018-07-09T00:50:23.156Z,0.00
2018-07-09T00:51:23.172Z,0.00
2018-07-09T00:52:23.195Z,0.00
2018-07-09T00:53:23.208Z,0.00
2018-07-09T00:54:23.229Z,0.00
2018-07-09T00:55:23.260Z,0.00
2018-07-09T00:56:23.303Z,0.00
2018-07-09T00:57:23.318Z,0.00
2018-07-09T00:58:23.283Z,0.00
2018-07-09T00:59:23.299Z,0.00
2018-07-09T01:00:23.315Z,0.00
2018-07-09T01:01:23.336Z,0.00
2018-07-09T01:02:23.348Z,0.00
2018-07-09T01:03:23.365Z,0.00
2018-07-09T01:04:23.382Z,0.00
2018-07-09T01:05:23.400Z,0.00
2018-07-09T01:06:23.417Z,0.00
2018-07-09T01:07:23.429Z,0.00
2018-07-09T01:08:23.446Z,0.00
2018-07-09T01:09:23.464Z,0.00
2018-07-09T01:10:23.709Z,0.00
2018-07-09T01:12:23.911Z,0.00
2018-07-09T01:13:23.527Z,0.00
2018-07-09T01:14:23.543Z,0.00
2018-07-09T01:15:23.559Z,0.00
2018-07-09T01:16:23.582Z,0.00
2018-07-09T01:17:23.593Z,0.00
2018-07-09T01:18:23.608Z,0.00
2018-07-09T01:19:23.627Z,0.00
2018-07-09T01:20:23.695Z,0.00
2018-07-09T01:21:23.660Z,0.00
2018-07-09T01:22:23.672Z,0.00
2018-07-09T01:23:23.689Z,0.00
2018-07-09T01:24:23.697Z,0.00
2018-07-09T01:25:23.714Z,0.00
2018-07-09T01:26:23.849Z,0.00
2018-07-09T01:27:23.747Z,0.00
2018-07-09T01:28:23.762Z,0.00
2018-07-09T01:29:23.778Z,0.00
2018-07-09T01:30:23.794Z,0.00
2018-07-09T01:31:23.812Z,0.00
2018-07-09T01:32:23.828Z,0.00
2018-07-09T01:33:23.843Z,0.00
2018-07-09T01:34:23.864Z,0.00
2018-07-09T01:35:23.877Z,0.00
2018-07-09T01:36:23.893Z,0.00
2018-07-09T01:37:23.913Z,0.00
2018-07-09T01:38:23.923Z,0.00
2018-07-09T01:39:23.939Z,0.00
2018-07-09T01:40:23.954Z,0.00
2018-07-09T01:41:23.983Z,0.00
2018-07-09T01:42:24.001Z,0.00
2018-07-09T01:43:24.015Z,0.00
2018-07-09T01:44:24.128Z,0.00
2018-07-09T01:46:24.141Z,0.00
2018-07-09T01:47:24.068Z,0.00
2018-07-09T01:48:24.088Z,0.00
2018-07-09T01:49:24.102Z,0.00
2018-07-09T01:50:24.127Z,0.00
2018-07-09T01:51:24.133Z,0.00
2018-07-09T01:52:24.147Z,0.00
2018-07-09T01:53:24.173Z,0.00
2018-07-09T01:54:24.185Z,0.00
2018-07-09T01:55:24.195Z,0.00
2018-07-09T01:56:24.217Z,0.00
2018-07-09T01:57:24.228Z,0.00
2018-07-09T01:58:24.245Z,0.00
2018-07-09T01:59:24.267Z,0.00
2018-07-09T02:00:24.276Z,0.00
2018-07-09T02:01:24.297Z,0.00
2018-07-09T02:02:24.308Z,0.00
2018-07-09T02:03:24.327Z,0.00
2018-07-09T02:04:24.339Z,0.00
2018-07-09T02:05:24.359Z,0.00
2018-07-09T02:06:24.374Z,0.00
2018-07-09T02:07:24.408Z,0.00
2018-07-09T02:08:24.404Z,0.00
2018-07-09T02:09:24.425Z,0.00
2018-07-09T02:10:24.439Z,0.00
2018-07-09T02:11:24.456Z,0.00
2018-07-09T02:12:24.470Z,0.00
2018-07-09T02:13:24.484Z,0.00
2018-07-09T02:14:24.500Z,0.00
2018-07-09T02:15:24.515Z,0.00
2018-07-09T02:16:24.735Z,0.00
2018-07-09T02:17:24.846Z,0.00
2018-07-09T02:18:24.591Z,0.00
2018-07-09T02:19:24.579Z,0.00
2018-07-09T02:20:24.644Z,0.00
2018-07-09T02:21:24.619Z,0.00
2018-07-09T02:22:24.628Z,0.00
2018-07-09T02:23:24.644Z,0.00
2018-07-09T02:24:24.660Z,0.00
2018-07-09T02:25:24.677Z,4.00
2018-07-09T02:26:24.693Z,0.00
2018-07-09T02:27:24.717Z,4.00
2018-07-09T02:28:24.724Z,4.00
2018-07-09T02:29:24.752Z,4.00
2018-07-09T02:30:24.756Z,4.00
2018-07-09T02:31:24.770Z,4.00
2018-07-09T02:32:24.804Z,4.00
2018-07-09T02:33:24.811Z,4.00
2018-07-09T02:34:24.818Z,4.00
2018-07-09T02:35:24.840Z,4.00
2018-07-09T02:36:24.860Z,4.00
2018-07-09T02:37:24.878Z,4.00
2018-07-09T02:38:24.891Z,4.00
2018-07-09T02:39:24.897Z,4.00
2018-07-09T02:40:24.916Z,4.00
2018-07-09T02:41:24.934Z,4.00
2018-07-09T02:42:24.952Z,4.00
2018-07-09T02:43:24.961Z,4.00
2018-07-09T02:44:25.028Z,4.00
2018-07-09T02:45:24.993Z,0.00
2018-07-09T02:46:25.071Z,0.00
2018-07-09T02:47:25.045Z,4.00
2018-07-09T02:48:25.043Z,4.00
2018-07-09T02:49:25.160Z,4.00
2018-07-09T02:50:25.133Z,4.00
2018-07-09T02:51:25.126Z,8.00
2018-07-09T02:52:25.224Z,4.00
2018-07-09T02:53:25.361Z,4.00
2018-07-09T02:54:25.275Z,8.00
2018-07-09T02:55:25.270Z,4.00
2018-07-09T02:56:25.217Z,8.00
2018-07-09T02:57:25.183Z,8.00
2018-07-09T02:58:25.201Z,4.00
2018-07-09T02:59:25.234Z,8.00
2018-07-09T03:00:25.231Z,8.00
2018-07-09T03:01:25.247Z,8.00
2018-07-09T03:02:25.264Z,12.00
2018-07-09T03:03:25.292Z,8.00
2018-07-09T03:04:25.293Z,12.00
2018-07-09T03:05:25.312Z,16.00
2018-07-09T03:06:25.327Z,16.00
2018-07-09T03:07:25.775Z,20.00
2018-07-09T03:08:25.358Z,20.00
2018-07-09T03:09:25.373Z,24.00
2018-07-09T03:10:25.389Z,24.00
2018-07-09T03:11:25.408Z,24.00
2018-07-09T03:12:25.419Z,28.00
2018-07-09T03:13:25.436Z,32.00
2018-07-09T03:14:25.495Z,32.00
2018-07-09T03:15:25.470Z,36.00
2018-07-09T03:16:25.487Z,40.00
2018-07-09T03:17:25.503Z,44.00
2018-07-09T03:18:25.522Z,48.00
2018-07-09T03:19:25.540Z,52.00
2018-07-09T03:20:25.549Z,52.00
2018-07-09T03:21:25.562Z,56.00
2018-07-09T03:22:25.579Z,60.00
2018-07-09T03:23:25.643Z,64.00
2018-07-09T03:24:25.743Z,68.00
2018-07-09T03:25:26.069Z,72.00
2018-07-09T03:26:25.640Z,80.00
2018-07-09T03:27:25.657Z,84.00
2018-07-09T03:28:25.673Z,88.00
2018-07-09T03:29:25.688Z,96.00
2018-07-09T03:30:25.712Z,104.00
2018-07-09T03:31:25.724Z,108.00
2018-07-09T03:32:25.738Z,112.00
2018-07-09T03:33:25.752Z,120.00
2018-07-09T03:34:25.783Z,128.00
2018-07-09T03:35:25.786Z,132.00
2018-07-09T03:36:25.801Z,140.00
2018-07-09T03:37:25.816Z,148.00
2018-07-09T03:38:25.830Z,156.00
2018-07-09T03:39:25.850Z,164.00
2018-07-09T03:40:25.861Z,172.00
2018-07-09T03:41:25.881Z,184.00
2018-07-09T03:42:25.895Z,192.00
2018-07-09T03:43:25.913Z,204.00
2018-07-09T03:44:25.924Z,208.00
2018-07-09T03:45:25.947Z,216.00
2018-07-09T03:46:25.978Z,228.00
2018-07-09T03:47:26.114Z,236.00
2018-07-09T03:48:25.986Z,248.00
2018-07-09T03:49:26.002Z,260.00
2018-07-09T03:50:26.018Z,272.00
2018-07-09T03:51:26.035Z,288.00
2018-07-09T03:52:26.052Z,300.00
2018-07-09T03:53:26.065Z,320.00
2018-07-09T03:54:26.081Z,336.00
2018-07-09T03:55:26.095Z,348.00
2018-07-09T03:56:26.116Z,360.00
2018-07-09T03:57:26.183Z,372.00
2018-07-09T03:58:26.146Z,384.00
2018-07-09T03:59:26.198Z,396.00
2018-07-09T04:00:26.179Z,408.00
2018-07-09T04:01:26.194Z,424.00
2018-07-09T04:02:26.210Z,428.00
2018-07-09T04:03:26.221Z,444.00
2018-07-09T04:04:26.240Z,452.00
2018-07-09T04:05:26.253Z,464.00
2018-07-09T04:06:26.272Z,476.00
2018-07-09T04:07:26.283Z,488.00
2018-07-09T04:08:26.358Z,504.00
2018-07-09T04:09:26.509Z,516.00
2018-07-09T04:10:26.331Z,528.00
2018-07-09T04:11:26.346Z,544.00
2018-07-09T04:12:26.391Z,556.00
2018-07-09T04:13:26.379Z,572.00
2018-07-09T04:14:26.399Z,584.00
2018-07-09T04:15:26.410Z,596.00
2018-07-09T04:16:26.427Z,608.00
2018-07-09T04:17:26.442Z,620.00
2018-07-09T04:18:26.457Z,632.00
2018-07-09T04:19:26.475Z,644.00
2018-07-09T04:20:26.488Z,660.00
2018-07-09T04:21:26.515Z,672.00
2018-07-09T04:22:26.527Z,684.00
2018-07-09T04:23:26.538Z,700.00
2018-07-09T04:24:26.553Z,712.00
2018-07-09T04:25:26.570Z,724.00
2018-07-09T04:26:26.597Z,740.00
2018-07-09T04:27:26.602Z,752.00
2018-07-09T04:28:26.613Z,764.00
2018-07-09T04:29:26.629Z,776.00
2018-07-09T04:30:26.650Z,792.00
2018-07-09T04:31:26.684Z,808.00
2018-07-09T04:32:26.685Z,824.00
2018-07-09T04:33:26.789Z,844.00
2018-07-09T04:34:26.827Z,876.00
2018-07-09T04:35:27.924Z,920.00
2018-07-09T04:36:26.747Z,1316.00
2018-07-09T04:37:28.306Z,3496.00
2018-07-09T04:38:28.323Z,3440.00
2018-07-09T04:39:27.197Z,1248.00
2018-07-09T04:40:26.823Z,992.00
2018-07-09T04:41:26.823Z,996.00
2018-07-09T04:42:26.988Z,1000.00
2018-07-09T04:43:28.296Z,1084.00
2018-07-09T04:44:26.878Z,2388.00
2018-07-09T04:45:26.887Z,2268.00
2018-07-09T04:47:27.144Z,1176.00
2018-07-09T04:48:28.606Z,1124.00
2018-07-09T04:49:26.997Z,1100.00
2018-07-09T04:50:26.962Z,1112.00
2018-07-09T04:51:27.005Z,1132.00
2018-07-09T04:52:27.042Z,1288.00
2018-07-09T04:53:27.086Z,1692.00
2018-07-09T04:54:27.044Z,1808.00
2018-07-09T04:55:27.056Z,1420.00
2018-07-09T04:56:27.095Z,1184.00
2018-07-09T04:57:27.196Z,1188.00
2018-07-09T04:58:27.135Z,1196.00
2018-07-09T04:59:27.104Z,1196.00
2018-07-09T05:00:27.132Z,1204.00
2018-07-09T05:01:27.144Z,1228.00
2018-07-09T05:02:27.169Z,1256.00
2018-07-09T05:03:27.180Z,1384.00
2018-07-09T05:04:27.216Z,1628.00
2018-07-09T05:05:27.228Z,1900.00
2018-07-09T05:06:27.218Z,2012.00
2018-07-09T05:07:27.317Z,1364.00
2018-07-09T05:08:27.376Z,1332.00
2018-07-09T05:09:27.270Z,1344.00
2018-07-09T05:10:27.299Z,1360.00
2018-07-09T05:11:27.309Z,1376.00
2018-07-09T05:12:27.317Z,1396.00
2018-07-09T05:13:27.328Z,1408.00
2018-07-09T05:14:27.344Z,1424.00
2018-07-09T05:15:27.362Z,1440.00
2018-07-09T05:16:27.381Z,1472.00
2018-07-09T05:17:27.675Z,1448.00
2018-07-09T05:18:27.524Z,1464.00
2018-07-09T05:19:27.424Z,1472.00
2018-07-09T05:20:27.439Z,1480.00
2018-07-09T05:21:27.729Z,1492.00
2018-07-09T05:22:27.476Z,1512.00
2018-07-09T05:23:27.484Z,1512.00
2018-07-09T05:24:27.501Z,1516.00
2018-07-09T05:25:27.522Z,1516.00
2018-07-09T05:26:27.611Z,1532.00
2018-07-09T05:27:27.553Z,1544.00
2018-07-09T05:28:27.565Z,1552.00
2018-07-09T05:29:27.580Z,1560.00
2018-07-09T05:30:27.599Z,1584.00
2018-07-09T05:31:27.611Z,1596.00
2018-07-09T05:32:28.528Z,1612.00
2018-07-09T05:34:27.912Z,1636.00
2018-07-09T05:35:27.680Z,1636.00
2018-07-09T05:36:28.752Z,1640.00
2018-07-09T05:37:27.707Z,1660.00
2018-07-09T05:38:27.726Z,1664.00
2018-07-09T05:39:27.798Z,1680.00
2018-07-09T05:42:27.790Z,1724.00
2018-07-09T05:43:27.838Z,1740.00
2018-07-09T05:44:27.859Z,1736.00
2018-07-09T05:45:27.852Z,1760.00
2018-07-09T05:46:27.852Z,1780.00
2018-07-09T05:47:27.874Z,1784.00
2018-07-09T05:48:28.134Z,1776.00
2018-07-09T05:49:27.934Z,1804.00
2018-07-09T05:50:28.527Z,1816.00
2018-07-09T05:51:27.933Z,1832.00
2018-07-09T05:52:27.948Z,1860.00
2018-07-09T05:53:28.093Z,1864.00
2018-07-09T05:54:27.978Z,1880.00
2018-07-09T05:55:27.996Z,1936.00
2018-07-09T05:56:28.007Z,2012.00
2018-07-09T05:57:28.026Z,2096.00
2018-07-09T05:58:28.044Z,2176.00
2018-07-09T05:59:28.061Z,2244.00
2018-07-09T06:00:28.076Z,2280.00
2018-07-09T06:01:28.217Z,2344.00
2018-07-09T06:02:28.588Z,2416.00
2018-07-09T06:03:28.133Z,2532.00
2018-07-09T06:04:28.136Z,2652.00
2018-07-09T06:05:28.185Z,2744.00
2018-07-09T06:06:28.172Z,2880.00
2018-07-09T06:07:28.915Z,2416.00
2018-07-09T06:08:28.197Z,2892.00
2018-07-09T06:09:28.219Z,2876.00
2018-07-09T06:10:28.236Z,2240.00
2018-07-09T06:11:28.299Z,2396.00
2018-07-09T06:12:28.274Z,2320.00
2018-07-09T06:13:28.392Z,2460.00
2018-07-09T06:14:28.364Z,2880.00
2018-07-09T06:15:28.319Z,2584.00
2018-07-09T06:16:28.348Z,2432.00
2018-07-09T06:17:28.360Z,2464.00
2018-07-09T06:18:28.372Z,2420.00
2018-07-09T06:19:28.490Z,2608.00
2018-07-09T06:20:28.392Z,3064.00
2018-07-09T06:21:28.693Z,2640.00
2018-07-09T06:22:28.426Z,3040.00
2018-07-09T06:23:28.442Z,2524.00
2018-07-09T06:24:28.461Z,2624.00
2018-07-09T06:25:28.485Z,2708.00
2018-07-09T06:26:28.493Z,2604.00
2018-07-09T06:27:28.508Z,2488.00
2018-07-09T06:28:28.527Z,2484.00
2018-07-09T06:29:28.549Z,2464.00
2018-07-09T06:30:28.586Z,2756.00
2018-07-09T06:31:28.661Z,2348.00
2018-07-09T06:32:28.599Z,2332.00
2018-07-09T06:33:28.615Z,2340.00
2018-07-09T06:34:28.623Z,2344.00
2018-07-09T06:35:28.640Z,2336.00
2018-07-09T06:36:29.484Z,2308.00
2018-07-09T06:37:28.687Z,2324.00
2018-07-09T06:39:28.715Z,2368.00
2018-07-09T06:40:28.723Z,2396.00
2018-07-09T06:41:28.740Z,2432.00
2018-07-09T06:42:28.761Z,2492.00
2018-07-09T06:43:28.773Z,2564.00
2018-07-09T06:45:29.228Z,2692.00
2018-07-09T06:46:28.903Z,2728.00
2018-07-09T06:47:29.492Z,2732.00
2018-07-09T06:48:28.882Z,2796.00
2018-07-09T06:49:28.898Z,2740.00
2018-07-09T06:50:28.897Z,2664.00
2018-07-09T06:51:28.902Z,2612.00
2018-07-09T06:52:28.920Z,2648.00
2018-07-09T06:53:28.978Z,2700.00
2018-07-09T06:54:28.950Z,2760.00
2018-07-09T06:56:28.986Z,2800.00
2018-07-09T06:57:29.026Z,2888.00
2018-07-09T06:58:29.040Z,2852.00
2018-07-09T06:59:29.037Z,2924.00
2018-07-09T07:00:29.051Z,2900.00
2018-07-09T07:01:29.065Z,2916.00
2018-07-09T07:02:30.023Z,2996.00
2018-07-09T07:03:29.645Z,3116.00
2018-07-09T07:04:29.148Z,3148.00
2018-07-09T07:05:29.235Z,3384.00
2018-07-09T07:06:29.880Z,3196.00
2018-07-09T07:07:29.180Z,3136.00
2018-07-09T07:08:29.192Z,3168.00
2018-07-09T07:09:29.223Z,3336.00
2018-07-09T07:10:29.269Z,3352.00
2018-07-09T07:11:29.245Z,3360.00
2018-07-09T07:12:29.256Z,3320.00
2018-07-09T07:13:29.297Z,3296.00
2018-07-09T07:14:29.380Z,3324.00
2018-07-09T07:15:29.302Z,3448.00
2018-07-09T07:16:29.399Z,3404.00
2018-07-09T07:17:29.674Z,3396.00
2018-07-09T07:18:29.356Z,3432.00
2018-07-09T07:19:29.369Z,3504.00
2018-07-09T07:20:29.388Z,3600.00
2018-07-09T07:21:29.402Z,3724.00
2018-07-09T07:22:29.433Z,3944.00
2018-07-09T07:23:29.457Z,4484.00
2018-07-09T07:24:29.453Z,5484.00
2018-07-09T07:25:29.484Z,5564.00
2018-07-09T07:27:29.495Z,4568.00
2018-07-09T07:28:29.520Z,5024.00
2018-07-09T07:29:29.534Z,4124.00
2018-07-09T07:30:29.545Z,3872.00
2018-07-09T07:31:29.742Z,3924.00
2018-07-09T07:32:29.680Z,4024.00
2018-07-09T07:33:29.595Z,4160.00
2018-07-09T07:34:29.617Z,3628.00
2018-07-09T07:35:29.630Z,3448.00
2018-07-09T07:36:29.654Z,3364.00
2018-07-09T07:37:30.377Z,3344.00
2018-07-09T07:38:29.680Z,3368.00
2018-07-09T07:39:29.730Z,3408.00
2018-07-09T07:40:29.715Z,3480.00
2018-07-09T07:41:29.943Z,3604.00
2018-07-09T07:42:29.749Z,3740.00
2018-07-09T07:43:30.644Z,3888.00
2018-07-09T07:44:29.884Z,3904.00
2018-07-09T07:45:29.803Z,3868.00
2018-07-09T07:46:29.818Z,3900.00
2018-07-09T07:47:29.833Z,3976.00
2018-07-09T07:48:30.199Z,4172.00
2018-07-09T07:49:30.354Z,4412.00
2018-07-09T07:50:29.977Z,4564.00
2018-07-09T07:51:29.912Z,4644.00
2018-07-09T07:52:30.199Z,4624.00
2018-07-09T07:53:30.001Z,4584.00
2018-07-09T07:54:30.026Z,4340.00
2018-07-09T07:55:29.986Z,3980.00
2018-07-09T07:56:29.984Z,3704.00
2018-07-09T07:57:30.003Z,3632.00
2018-07-09T07:58:30.073Z,3608.00
2018-07-09T07:59:30.105Z,3596.00
2018-07-09T08:01:30.070Z,3400.00
2018-07-09T08:02:30.086Z,3288.00
2018-07-09T08:03:30.111Z,3200.00
2018-07-09T08:04:30.123Z,3128.00
2018-07-09T08:05:30.139Z,2952.00
2018-07-09T08:07:30.175Z,2536.00
2018-07-09T08:08:30.189Z,2324.00
2018-07-09T08:09:31.487Z,2224.00
2018-07-09T08:10:30.233Z,2244.00
2018-07-09T08:11:47.725Z,2004.00
2018-07-09T08:13:01.003Z,1964.00
2018-07-09T08:13:30.290Z,2056.00
2018-07-09T08:14:30.295Z,1988.00
2018-07-09T08:15:31.041Z,2152.00
2018-07-09T08:16:31.455Z,2700.00
2018-07-09T08:17:31.425Z,3000.00
2018-07-09T08:18:30.886Z,3092.00
2018-07-09T08:19:30.437Z,3284.00
2018-07-09T08:20:30.394Z,3284.00
2018-07-09T08:21:30.612Z,3480.00
2018-07-09T08:22:31.468Z,3088.00
2018-07-09T08:23:30.444Z,2828.00
2018-07-09T08:25:30.664Z,2844.00
2018-07-09T08:26:30.493Z,3492.00
2018-07-09T08:27:32.008Z,3140.00
2018-07-09T08:28:31.922Z,3216.00
2018-07-09T08:29:30.562Z,3724.00
2018-07-09T08:30:30.602Z,3420.00
2018-07-09T08:31:30.592Z,3664.00
2018-07-09T08:32:30.799Z,3700.00
2018-07-09T08:33:30.617Z,3396.00
2018-07-09T08:34:30.626Z,3520.00
2018-07-09T08:35:30.692Z,3532.00
2018-07-09T08:36:30.663Z,3576.00
2018-07-09T08:37:30.689Z,3700.00
2018-07-09T08:38:30.769Z,3752.00
2018-07-09T08:39:30.720Z,3760.00
2018-07-09T08:40:30.740Z,3696.00
2018-07-09T08:41:30.745Z,3404.00
2018-07-09T08:42:30.761Z,3368.00
2018-07-09T08:43:30.777Z,3308.00
2018-07-09T08:44:31.775Z,2916.00
2018-07-09T08:45:30.811Z,2540.00
2018-07-09T08:46:31.311Z,3288.00
2018-07-09T08:47:31.127Z,3480.00
2018-07-09T08:48:31.858Z,3084.00
2018-07-09T08:49:31.500Z,2592.00
2018-07-09T08:50:31.312Z,3384.00
2018-07-09T08:51:31.047Z,3632.00
2018-07-09T08:52:31.210Z,3640.00
2018-07-09T08:53:31.088Z,3908.00
2018-07-09T08:54:31.133Z,4080.00
2018-07-09T08:55:31.116Z,4120.00
2018-07-09T08:56:31.512Z,3828.00
2018-07-09T08:57:31.017Z,4300.00
2018-07-09T08:58:31.056Z,4484.00
2018-07-09T08:59:31.063Z,4400.00
2018-07-09T09:00:31.081Z,4644.00
2018-07-09T09:01:31.105Z,4080.00
2018-07-09T09:02:31.166Z,3764.00
2018-07-09T09:03:31.128Z,3100.00
2018-07-09T09:04:31.148Z,5052.00
2018-07-09T09:05:31.146Z,5380.00
2018-07-09T09:06:31.168Z,4120.00
2018-07-09T09:07:31.183Z,5684.00
2018-07-09T09:08:31.195Z,6512.00
2018-07-09T09:09:31.214Z,5144.00
2018-07-09T09:10:31.231Z,5860.00
2018-07-09T09:11:31.249Z,4788.00
2018-07-09T09:12:31.265Z,6468.00
2018-07-09T09:13:31.280Z,6124.00
2018-07-09T09:14:31.675Z,6792.00
2018-07-09T09:15:31.332Z,6180.00
2018-07-09T09:16:32.081Z,5464.00
2018-07-09T09:17:31.723Z,4748.00
2018-07-09T09:18:31.368Z,4120.00
2018-07-09T09:19:31.584Z,3548.00
2018-07-09T09:20:31.405Z,3680.00
2018-07-09T09:21:31.518Z,4024.00
2018-07-09T09:22:31.474Z,4284.00
2018-07-09T09:23:31.775Z,4340.00
2018-07-09T09:24:31.749Z,4380.00
2018-07-09T09:25:31.558Z,4372.00
2018-07-09T09:26:31.858Z,4416.00
2018-07-09T09:27:31.597Z,4576.00
2018-07-09T09:30:31.660Z,4280.00
2018-07-09T09:31:31.622Z,4272.00
2018-07-09T09:32:31.618Z,4492.00
2018-07-09T09:33:31.633Z,4816.00
2018-07-09T09:34:31.669Z,5128.00
2018-07-09T09:35:31.701Z,5336.00
2018-07-09T09:36:31.706Z,5488.00
2018-07-09T09:37:32.267Z,5556.00
2018-07-09T09:38:31.920Z,5512.00
2018-07-09T09:39:31.767Z,5480.00
2018-07-09T09:41:31.828Z,4724.00
2018-07-09T09:42:31.792Z,4408.00
2018-07-09T09:43:31.826Z,4276.00
2018-07-09T09:44:32.705Z,4452.00
2018-07-09T09:45:32.123Z,4760.00
2018-07-09T09:47:32.094Z,4244.00
2018-07-09T09:48:32.670Z,3652.00
2018-07-09T09:49:31.965Z,3624.00
2018-07-09T09:50:31.946Z,3760.00
2018-07-09T09:51:31.970Z,4140.00
2018-07-09T09:52:31.975Z,4592.00
2018-07-09T09:53:32.018Z,4036.00
2018-07-09T09:54:32.014Z,3992.00
2018-07-09T09:55:32.039Z,3996.00
2018-07-09T09:56:32.068Z,4108.00
2018-07-09T09:57:32.064Z,4172.00
2018-07-09T09:58:32.101Z,4068.00
2018-07-09T09:59:32.113Z,3896.00
2018-07-09T10:00:33.212Z,3952.00
2018-07-09T10:01:32.713Z,4264.00
2018-07-09T10:02:32.153Z,4348.00
2018-07-09T10:03:32.191Z,4108.00
2018-07-09T10:04:32.212Z,3660.00
2018-07-09T10:05:32.458Z,3088.00
2018-07-09T10:06:32.768Z,3048.00
2018-07-09T10:07:32.323Z,3388.00
2018-07-09T10:08:32.323Z,3896.00
2018-07-09T10:10:32.317Z,5204.00
2018-07-09T10:11:32.742Z,5708.00
2018-07-09T10:12:32.351Z,6244.00
2018-07-09T10:13:32.352Z,6608.00
2018-07-09T10:14:32.374Z,6644.00
2018-07-09T10:15:32.866Z,6560.00
2018-07-09T10:17:32.520Z,6420.00
2018-07-09T10:18:32.483Z,6288.00
2018-07-09T10:19:32.491Z,6168.00
2018-07-09T10:20:32.693Z,6188.00
2018-07-09T10:21:32.574Z,6220.00
2018-07-09T10:22:32.646Z,6332.00
2018-07-09T10:23:32.956Z,6492.00
2018-07-09T10:24:32.715Z,6704.00
2018-07-09T10:25:32.695Z,6680.00
2018-07-09T10:27:32.613Z,5820.00
2018-07-09T10:28:32.624Z,5316.00
2018-07-09T10:29:32.680Z,4836.00
2018-07-09T10:30:32.751Z,4392.00
2018-07-09T10:31:32.715Z,3924.00
2018-07-09T10:32:32.699Z,3784.00
2018-07-09T10:33:32.748Z,3828.00
2018-07-09T10:34:32.755Z,3948.00
2018-07-09T10:35:32.829Z,3936.00
2018-07-09T10:36:32.801Z,3976.00
2018-07-09T10:37:32.818Z,3652.00
2018-07-09T10:38:32.809Z,3272.00
2018-07-09T10:39:32.901Z,3016.00
2018-07-09T10:40:32.893Z,2568.00
2018-07-09T10:41:33.027Z,2348.00
2018-07-09T10:42:32.954Z,2084.00
2018-07-09T10:43:32.912Z,1924.00
2018-07-09T10:44:32.941Z,2056.00
2018-07-09T10:45:32.935Z,2392.00
2018-07-09T10:46:33.585Z,2972.00
2018-07-09T10:47:32.976Z,3708.00
2018-07-09T10:48:32.991Z,4524.00
2018-07-09T10:49:33.027Z,5028.00
2018-07-09T10:50:33.142Z,4832.00
2018-07-09T10:51:33.246Z,4472.00
2018-07-09T10:52:33.063Z,4308.00
2018-07-09T10:53:33.080Z,4088.00
2018-07-09T10:54:33.094Z,3764.00
2018-07-09T10:55:33.198Z,3444.00
2018-07-09T10:56:33.177Z,3220.00
2018-07-09T10:57:33.165Z,3064.00
2018-07-09T10:59:33.853Z,3072.00
2018-07-09T11:00:33.601Z,3600.00
2018-07-09T11:01:33.223Z,4360.00
2018-07-09T11:02:33.266Z,5032.00
2018-07-09T11:03:33.358Z,5452.00
2018-07-09T11:04:33.278Z,5624.00
2018-07-09T11:05:33.350Z,5556.00
2018-07-09T11:06:33.314Z,5092.00
2018-07-09T11:07:33.332Z,4408.00
2018-07-09T11:08:33.347Z,3696.00
2018-07-09T11:09:33.372Z,3024.00
2018-07-09T11:11:33.404Z,1948.00
2018-07-09T11:12:33.421Z,1700.00
2018-07-09T11:13:33.439Z,1456.00
2018-07-09T11:14:33.697Z,1268.00
2018-07-09T11:15:34.192Z,1156.00
2018-07-09T11:16:33.815Z,1256.00
2018-07-09T11:17:34.310Z,1404.00
2018-07-09T11:18:33.990Z,1572.00
2018-07-09T11:19:33.546Z,1752.00
2018-07-09T11:20:33.576Z,1920.00
2018-07-09T11:21:33.747Z,2036.00
2018-07-09T11:22:33.599Z,2040.00
2018-07-09T11:23:33.812Z,1984.00
2018-07-09T11:24:33.635Z,1964.00
2018-07-09T11:25:33.656Z,2044.00
2018-07-09T11:26:33.719Z,2180.00
2018-07-09T11:27:33.939Z,2372.00
2018-07-09T11:28:33.722Z,2552.00
2018-07-09T11:29:33.758Z,2712.00
2018-07-09T11:30:33.765Z,2716.00
2018-07-09T11:31:33.754Z,2604.00
2018-07-09T11:32:33.850Z,2564.00
2018-07-09T11:33:33.799Z,2596.00
2018-07-09T11:34:33.814Z,2700.00
2018-07-09T11:35:33.839Z,2836.00
2018-07-09T11:36:34.469Z,3036.00
2018-07-09T11:37:34.368Z,3364.00
2018-07-09T11:39:34.351Z,4380.00
2018-07-09T11:40:34.308Z,4768.00
2018-07-09T11:41:33.954Z,4940.00
2018-07-09T11:42:33.956Z,4904.00
2018-07-09T11:43:33.967Z,4804.00
2018-07-09T11:44:34.087Z,4728.00
2018-07-09T11:45:34.205Z,4788.00
2018-07-09T11:46:34.215Z,4996.00
2018-07-09T11:47:34.778Z,4940.00
2018-07-09T11:49:34.761Z,4708.00
2018-07-09T11:50:34.433Z,4880.00
2018-07-09T11:52:34.442Z,5508.00
2018-07-09T11:53:34.913Z,5928.00
2018-07-09T11:54:34.318Z,6284.00
2018-07-09T11:55:34.513Z,6608.00
2018-07-09T11:56:34.412Z,6912.00
2018-07-09T11:57:34.484Z,6984.00
2018-07-09T11:58:34.448Z,6768.00
2018-07-09T11:59:34.492Z,6264.00
2018-07-09T12:00:34.601Z,5792.00
2018-07-09T12:01:34.392Z,5364.00
2018-07-09T12:02:34.634Z,5120.00
2018-07-09T12:03:34.340Z,4708.00
2018-07-09T12:04:34.391Z,4276.00
2018-07-09T12:05:34.656Z,3908.00
2018-07-09T12:06:34.684Z,3608.00
2018-07-09T12:07:35.011Z,3524.00
2018-07-09T12:08:34.414Z,3524.00
2018-07-09T12:09:34.449Z,3548.00
2018-07-09T12:10:34.452Z,3600.00
2018-07-09T12:11:34.473Z,3628.00
2018-07-09T12:12:34.553Z,3620.00
2018-07-09T12:13:34.506Z,3624.00
2018-07-09T12:14:34.584Z,3668.00
2018-07-09T12:15:34.552Z,3708.00
2018-07-09T12:16:34.684Z,3728.00
2018-07-09T12:17:34.590Z,3728.00
2018-07-09T12:18:35.669Z,3800.00
2018-07-09T12:19:34.615Z,3940.00
2018-07-09T12:20:34.643Z,4160.00
2018-07-09T12:21:34.765Z,4384.00
2018-07-09T12:22:34.677Z,4396.00
2018-07-09T12:23:34.741Z,4044.00
2018-07-09T12:24:34.706Z,3832.00
2018-07-09T12:25:34.731Z,3880.00
2018-07-09T12:26:34.743Z,4052.00
2018-07-09T12:27:34.983Z,4256.00
2018-07-09T12:28:35.134Z,4544.00
2018-07-09T12:29:35.118Z,4920.00
2018-07-09T12:30:35.029Z,5368.00
2018-07-09T12:31:34.995Z,5964.00
2018-07-09T12:32:34.873Z,6512.00
2018-07-09T12:33:34.899Z,7856.00
2018-07-09T12:34:34.918Z,9212.00
2018-07-09T12:35:35.123Z,9356.00
2018-07-09T12:36:35.187Z,8008.00
2018-07-09T12:37:35.921Z,9068.00
2018-07-09T12:39:35.840Z,9032.00
2018-07-09T12:40:35.152Z,8544.00
2018-07-09T12:41:35.341Z,7772.00
2018-07-09T12:42:35.338Z,10812.00
2018-07-09T12:43:35.591Z,10472.00
2018-07-09T12:44:35.295Z,8100.00
2018-07-09T12:45:35.679Z,8028.00
2018-07-09T12:46:35.238Z,9276.00
2018-07-09T12:47:35.144Z,6140.00
2018-07-09T12:48:35.394Z,6172.00
2018-07-09T12:49:35.196Z,6472.00
2018-07-09T12:50:35.255Z,6992.00
2018-07-09T12:51:35.364Z,7000.00